createdAt,value
2017-08-01T00:01:22.057Z,66.54
2017-08-01T00:03:53.876Z,66.54
2017-08-01T00:06:25.367Z,66.55
2017-08-01T00:08:56.833Z,66.59
2017-08-01T00:11:28.252Z,66.97
2017-08-01T00:13:59.691Z,67.00
2017-08-01T00:16:31.077Z,66.89
2017-08-01T00:19:02.352Z,66.69
2017-08-01T00:21:34.120Z,66.68
2017-08-01T00:24:05.979Z,66.67
2017-08-01T00:26:37.335Z,66.91
2017-08-01T00:29:08.651Z,67.26
2017-08-01T00:31:40.013Z,67.55
2017-08-01T00:34:11.327Z,67.64
2017-08-01T00:36:42.914Z,67.89
2017-08-01T00:39:14.229Z,68.47
2017-08-01T00:41:45.589Z,68.74
2017-08-01T00:44:16.868Z,68.94
2017-08-01T00:46:48.339Z,69.40
2017-08-01T00:49:19.706Z,70.06
2017-08-01T00:51:51.451Z,70.47
2017-08-01T00:54:23.069Z,70.75
2017-08-01T00:56:54.430Z,71.06
2017-08-01T00:59:25.549Z,70.41
2017-08-01T01:01:56.744Z,70.03
2017-08-01T01:04:27.713Z,70.07
2017-08-01T01:06:59.189Z,69.78
2017-08-01T01:09:30.197Z,69.66
2017-08-01T01:12:02.083Z,69.50
2017-08-01T01:14:33.807Z,69.20
2017-08-01T01:17:05.203Z,68.69
2017-08-01T01:19:36.217Z,68.45
2017-08-01T01:22:07.692Z,68.01
2017-08-01T01:24:38.697Z,67.71
2017-08-01T01:27:09.730Z,66.56
2017-08-01T01:29:40.758Z,66.32
2017-08-01T01:32:11.837Z,64.82
2017-08-01T01:34:42.943Z,64.53
2017-08-01T01:37:14.292Z,64.74
2017-08-01T01:39:45.373Z,64.65
2017-08-01T01:42:16.449Z,64.53
2017-08-01T01:44:47.844Z,63.84
2017-08-01T01:47:18.886Z,63.70
2017-08-01T01:49:49.906Z,63.57
2017-08-01T01:52:21.324Z,63.36
2017-08-01T01:54:52.405Z,62.48
2017-08-01T01:57:23.418Z,61.84
2017-08-01T01:59:54.429Z,61.45
2017-08-01T02:02:25.521Z,61.02
2017-08-01T02:04:56.565Z,61.04
2017-08-01T02:07:27.857Z,60.92
2017-08-01T02:09:58.850Z,61.04
2017-08-01T02:12:29.915Z,61.20
2017-08-01T02:15:01.017Z,61.40
2017-08-01T02:17:32.157Z,61.32
2017-08-01T02:20:03.910Z,61.32
2017-08-01T02:22:35.402Z,61.17
2017-08-01T02:25:06.843Z,61.18
2017-08-01T02:27:37.881Z,61.39
2017-08-01T02:30:08.998Z,61.44
2017-08-01T02:32:40.052Z,61.52
2017-08-01T02:35:11.127Z,61.91
2017-08-01T02:37:42.474Z,61.96
2017-08-01T02:40:13.493Z,62.05
2017-08-01T02:42:44.481Z,61.88
2017-08-01T02:45:15.440Z,61.91
2017-08-01T02:47:46.458Z,61.88
2017-08-01T02:50:17.450Z,61.78
2017-08-01T02:52:48.824Z,62.02
2017-08-01T02:55:19.815Z,62.11
2017-08-01T02:57:50.845Z,62.29
2017-08-01T03:00:21.860Z,62.47
2017-08-01T03:02:52.854Z,62.63
2017-08-01T03:05:23.881Z,62.87
2017-08-01T03:07:55.332Z,62.97
2017-08-01T03:10:26.381Z,63.41
2017-08-01T03:12:57.386Z,63.75
2017-08-01T03:15:28.501Z,64.12
2017-08-01T03:17:59.554Z,64.50
2017-08-01T03:20:30.690Z,64.77
2017-08-01T03:23:02.172Z,65.03
2017-08-01T03:25:33.234Z,65.31
2017-08-01T03:28:04.894Z,65.58
2017-08-01T03:30:36.346Z,65.76
2017-08-01T03:33:07.393Z,65.65
2017-08-01T03:35:38.479Z,65.47
2017-08-01T03:38:09.976Z,65.27
2017-08-01T03:40:40.994Z,65.35
2017-08-01T03:43:12.142Z,65.61
2017-08-01T03:45:43.177Z,65.86
2017-08-01T03:48:14.190Z,66.01
2017-08-01T03:50:45.151Z,66.15
2017-08-01T03:53:16.619Z,66.37
2017-08-01T03:55:48.113Z,66.40
2017-08-01T03:58:19.432Z,66.67
2017-08-01T04:00:50.905Z,66.77
2017-08-01T04:03:21.917Z,66.82
2017-08-01T04:05:52.978Z,66.83
2017-08-01T04:08:24.374Z,66.88
2017-08-01T04:10:55.640Z,66.84
2017-08-01T04:13:26.676Z,67.08
2017-08-01T04:15:57.716Z,67.21
2017-08-01T04:18:28.917Z,67.34
2017-08-01T04:20:59.926Z,67.18
2017-08-01T04:23:31.304Z,67.39
2017-08-01T04:26:02.829Z,67.43
2017-08-01T04:28:33.825Z,67.28
2017-08-01T04:31:04.901Z,67.47
2017-08-01T04:33:35.949Z,67.30
2017-08-01T04:36:07.089Z,67.13
2017-08-01T04:38:38.571Z,66.96
2017-08-01T04:41:09.569Z,67.17
2017-08-01T04:43:40.597Z,66.94
2017-08-01T04:46:11.625Z,66.78
2017-08-01T04:48:42.626Z,67.00
2017-08-01T04:51:13.632Z,66.81
2017-08-01T04:53:45.085Z,66.93
2017-08-01T04:56:16.094Z,66.63
2017-08-01T05:01:16.938Z,66.01
2017-08-01T05:03:48.104Z,65.74
2017-08-01T05:06:19.425Z,65.33
2017-08-01T05:08:50.402Z,65.02
2017-08-01T05:11:21.376Z,64.84
2017-08-01T05:13:52.681Z,64.81
2017-08-01T05:16:23.669Z,64.66
2017-08-01T05:18:54.774Z,64.53
2017-08-01T05:21:25.828Z,64.20
2017-08-01T05:23:57.269Z,63.89
2017-08-01T05:26:28.266Z,63.83
2017-08-01T05:28:59.253Z,63.83
2017-08-01T05:31:30.241Z,63.65
2017-08-01T05:34:01.393Z,64.02
2017-08-01T05:36:32.473Z,64.96
2017-08-01T05:39:04.264Z,64.48
2017-08-01T05:41:35.293Z,64.12
2017-08-01T05:44:06.344Z,63.63
2017-08-01T05:46:37.345Z,63.01
2017-08-01T05:49:08.365Z,62.54
2017-08-01T05:51:39.378Z,62.20
2017-08-01T05:54:13.023Z,62.36
2017-08-01T05:56:44.034Z,63.21
2017-08-01T05:59:15.385Z,63.39
2017-08-01T06:01:46.417Z,63.58
2017-08-01T06:04:17.437Z,64.38
2017-08-01T06:06:48.787Z,64.19
2017-08-01T06:09:19.772Z,64.12
2017-08-01T06:11:50.762Z,63.06
2017-08-01T06:14:22.403Z,62.62
2017-08-01T06:16:53.609Z,62.65
2017-08-01T06:19:26.437Z,61.98
2017-08-01T06:21:57.722Z,63.07
2017-08-01T06:24:29.119Z,62.53
2017-08-01T06:27:00.105Z,62.26
2017-08-01T06:29:31.277Z,63.07
2017-08-01T06:32:07.545Z,62.36
2017-08-01T06:34:57.514Z,62.51
2017-08-01T06:37:30.734Z,62.29
2017-08-01T06:40:21.145Z,62.04
2017-08-01T06:42:55.089Z,62.17
2017-08-01T06:45:28.390Z,61.27
2017-08-01T06:53:37.006Z,61.00
2017-08-01T06:56:09.791Z,60.68
2017-08-01T06:58:42.086Z,60.32
2017-08-01T07:01:13.153Z,59.67
2017-08-01T07:03:44.558Z,59.52
2017-08-01T07:06:17.544Z,59.50
2017-08-01T07:08:48.647Z,59.68
2017-08-01T07:11:20.021Z,59.27
2017-08-01T07:13:51.118Z,59.08
2017-08-01T07:16:23.069Z,58.65
2017-08-01T07:18:54.448Z,58.46
2017-08-01T07:21:25.545Z,58.62
2017-08-01T07:23:56.920Z,58.78
2017-08-01T07:26:27.997Z,59.18
2017-08-01T07:28:59.088Z,58.64
2017-08-01T07:31:31.553Z,58.32
2017-08-01T07:34:07.382Z,57.90
2017-08-01T07:36:39.587Z,56.94
2017-08-01T07:39:11.201Z,56.38
2017-08-01T07:41:42.322Z,56.02
2017-08-01T07:44:18.583Z,56.64
2017-08-01T07:46:49.647Z,55.96
2017-08-01T07:49:21.051Z,55.08
2017-08-01T07:51:52.175Z,54.96
2017-08-01T07:54:24.638Z,55.07
2017-08-01T07:59:34.031Z,54.52
2017-08-01T08:02:08.676Z,53.43
2017-08-01T08:04:39.905Z,53.11
2017-08-01T08:07:11.061Z,52.51
2017-08-01T08:09:42.171Z,52.30
2017-08-01T08:12:15.842Z,51.48
2017-08-01T08:14:47.144Z,51.27
2017-08-01T08:17:18.376Z,51.07
2017-08-01T08:19:50.737Z,50.87
2017-08-01T08:22:21.828Z,50.63
2017-08-01T08:24:52.861Z,50.69
2017-08-01T08:27:23.878Z,50.60
2017-08-01T08:29:54.954Z,50.30
2017-08-01T08:32:25.973Z,48.86
2017-08-01T08:34:57.315Z,48.00
2017-08-01T08:37:28.433Z,47.01
2017-08-01T08:39:59.489Z,47.87
2017-08-01T08:42:30.845Z,48.73
2017-08-01T08:45:03.293Z,49.09
2017-08-01T08:47:45.475Z,49.14
2017-08-01T08:53:12.129Z,48.93
2017-08-01T08:55:43.244Z,49.50
2017-08-01T08:58:16.154Z,49.02
2017-08-01T09:00:47.246Z,49.36
2017-08-01T09:03:18.705Z,49.98
2017-08-01T09:05:49.925Z,50.27
2017-08-01T09:08:21.265Z,50.02
2017-08-01T09:10:53.497Z,50.33
2017-08-01T09:13:24.607Z,50.45
2017-08-01T09:15:55.707Z,50.09
2017-08-01T09:18:27.128Z,49.93
2017-08-01T09:20:58.242Z,49.46
2017-08-01T09:23:29.313Z,48.59
2017-08-01T09:26:00.756Z,47.81
2017-08-01T09:28:32.061Z,46.63
2017-08-01T09:31:03.152Z,45.96
2017-08-01T09:33:34.529Z,46.07
2017-08-01T09:36:06.975Z,45.00
2017-08-01T09:38:38.197Z,44.35
2017-08-01T09:41:09.567Z,44.18
2017-08-01T09:43:40.675Z,44.04
2017-08-01T09:46:11.907Z,44.02
2017-08-01T09:48:43.277Z,43.56
2017-08-01T09:51:14.375Z,43.21
2017-08-01T09:53:45.740Z,43.47
2017-08-01T09:56:18.007Z,43.73
2017-08-01T09:58:49.110Z,43.79
2017-08-01T10:01:20.288Z,43.11
2017-08-01T10:03:51.721Z,42.72
2017-08-01T10:06:22.933Z,41.40
2017-08-01T10:08:54.047Z,41.37
2017-08-01T10:11:25.497Z,40.97
2017-08-01T10:13:56.657Z,41.17
2017-08-01T10:16:27.832Z,40.08
2017-08-01T10:18:59.256Z,39.96
2017-08-01T10:21:30.303Z,39.71
2017-08-01T10:24:03.191Z,39.92
2017-08-01T10:26:34.713Z,38.59
2017-08-01T10:29:05.838Z,38.33
2017-08-01T10:31:36.972Z,36.87
2017-08-01T10:34:08.576Z,38.06
2017-08-01T10:36:39.674Z,38.30
2017-08-01T10:39:10.763Z,38.30
2017-08-01T10:41:42.204Z,36.76
2017-08-01T10:44:13.594Z,37.21
2017-08-01T10:46:44.755Z,36.68
2017-08-01T10:49:15.891Z,36.47
2017-08-01T10:51:47.459Z,35.65
2017-08-01T10:54:19.092Z,35.07
2017-08-01T10:56:50.231Z,35.15
2017-08-01T10:59:23.066Z,35.06
2017-08-01T11:01:54.226Z,34.93
2017-08-01T11:04:25.421Z,34.56
2017-08-01T11:06:56.956Z,35.09
2017-08-01T11:09:28.905Z,35.15
2017-08-01T11:12:00.648Z,34.84
2017-08-01T11:14:31.756Z,33.78
2017-08-01T11:17:04.096Z,34.14
2017-08-01T11:19:35.535Z,34.16
2017-08-01T11:22:08.985Z,33.08
2017-08-01T11:24:40.408Z,33.52
2017-08-01T11:27:11.851Z,32.97
2017-08-01T11:29:43.937Z,33.01
2017-08-01T11:32:18.919Z,31.73
2017-08-01T11:34:50.070Z,31.11
2017-08-01T11:37:21.583Z,30.65
2017-08-01T11:39:52.869Z,30.83
2017-08-01T11:42:24.009Z,31.28
2017-08-01T11:44:55.836Z,31.75
2017-08-01T11:47:26.963Z,31.70
2017-08-01T11:49:58.060Z,31.53
2017-08-01T11:52:30.819Z,31.56
2017-08-01T11:55:05.097Z,31.21
2017-08-01T11:57:38.155Z,31.59
2017-08-01T12:03:04.360Z,33.50
2017-08-01T12:05:35.626Z,33.66
2017-08-01T12:08:08.618Z,33.48
2017-08-01T12:10:39.692Z,32.93
2017-08-01T12:13:11.350Z,32.29
2017-08-01T12:15:42.389Z,31.92
2017-08-01T12:18:13.863Z,31.45
2017-08-01T12:20:45.200Z,31.07
2017-08-01T12:23:16.406Z,29.87
2017-08-01T12:25:47.460Z,29.75
2017-08-01T12:30:45.117Z,31.04
2017-08-01T12:33:16.142Z,30.90
2017-08-01T12:35:47.463Z,30.84
2017-08-01T12:38:18.502Z,30.98
2017-08-01T12:40:50.272Z,31.88
2017-08-01T12:43:21.277Z,32.47
2017-08-01T12:45:52.338Z,34.02
2017-08-01T12:48:23.628Z,34.37
2017-08-01T12:50:54.656Z,35.44
2017-08-01T12:53:25.680Z,36.20
2017-08-01T12:55:57.059Z,37.12
2017-08-01T12:58:28.149Z,38.27
2017-08-01T13:00:59.472Z,40.13
2017-08-01T13:03:30.508Z,41.13
2017-08-01T13:06:02.682Z,41.95
2017-08-01T13:08:33.692Z,42.60
2017-08-01T13:11:04.759Z,42.85
2017-08-01T13:13:35.783Z,43.08
2017-08-01T13:16:06.850Z,43.65
2017-08-01T13:18:38.327Z,44.19
2017-08-01T13:24:09.121Z,45.50
2017-08-01T13:26:40.172Z,45.52
2017-08-01T13:29:11.734Z,45.60
2017-08-01T13:31:42.794Z,45.42
2017-08-01T13:34:13.865Z,45.10
2017-08-01T13:36:45.093Z,44.51
2017-08-01T13:39:16.146Z,43.98
2017-08-01T13:41:47.527Z,44.71
2017-08-01T13:44:18.661Z,44.57
2017-08-01T13:46:49.726Z,44.88
2017-08-01T13:49:21.322Z,44.93
2017-08-01T13:51:55.001Z,45.52
2017-08-01T13:54:33.839Z,45.04
2017-08-01T13:57:06.298Z,44.66
2017-08-01T13:59:39.652Z,44.50
2017-08-01T14:02:12.798Z,45.79
2017-08-01T14:04:44.759Z,45.40
2017-08-01T14:07:15.890Z,45.48
2017-08-01T14:09:47.419Z,45.83
2017-08-01T14:12:18.534Z,45.53
2017-08-01T14:14:49.714Z,45.58
2017-08-01T14:17:21.049Z,45.28
2017-08-01T14:19:52.234Z,45.65
2017-08-01T14:22:23.297Z,45.81
2017-08-01T14:24:54.671Z,45.79
2017-08-01T14:27:25.773Z,45.88
2017-08-01T14:29:57.371Z,45.93
2017-08-01T14:32:28.457Z,45.32
2017-08-01T14:34:59.700Z,45.14
2017-08-01T14:37:31.012Z,44.81
2017-08-01T14:40:04.020Z,44.42
2017-08-01T14:42:35.300Z,44.36
2017-08-01T14:45:06.788Z,44.16
2017-08-01T14:47:37.944Z,44.14
2017-08-01T14:50:09.290Z,44.21
2017-08-01T14:52:40.349Z,44.04
2017-08-01T14:55:11.370Z,43.05
2017-08-01T14:57:45.217Z,42.66
2017-08-01T15:00:16.586Z,42.85
2017-08-01T15:02:47.630Z,43.53
2017-08-01T15:05:18.966Z,44.39
2017-08-01T15:07:50.030Z,45.18
2017-08-01T15:10:21.553Z,46.22
2017-08-01T15:12:52.683Z,46.93
2017-08-01T15:15:23.903Z,47.62
2017-08-01T15:17:56.263Z,48.51
2017-08-01T15:20:27.351Z,49.14
2017-08-01T15:22:58.461Z,50.21
2017-08-01T15:25:29.854Z,50.95
2017-08-01T15:28:00.962Z,51.29
2017-08-01T15:30:32.282Z,51.10
2017-08-01T15:33:03.396Z,51.04
2017-08-01T15:35:34.440Z,51.23
2017-08-01T15:41:00.889Z,51.62
2017-08-01T15:43:32.143Z,50.96
2017-08-01T15:46:07.650Z,50.44
2017-08-01T15:48:38.873Z,50.38
2017-08-01T15:51:09.977Z,50.52
2017-08-01T15:53:41.365Z,51.04
2017-08-01T15:56:12.490Z,50.99
2017-08-01T15:58:43.607Z,51.04
2017-08-01T16:01:15.570Z,51.14
2017-08-01T16:03:46.644Z,50.34
2017-08-01T16:06:17.778Z,49.97
2017-08-01T16:08:49.261Z,50.20
2017-08-01T16:11:20.394Z,50.28
2017-08-01T16:13:51.494Z,50.37
2017-08-01T16:16:22.943Z,49.63
2017-08-01T16:18:54.057Z,49.25
2017-08-01T16:21:25.171Z,49.65
2017-08-01T16:23:56.570Z,50.94
2017-08-01T16:26:27.755Z,51.39
2017-08-01T16:28:59.210Z,51.75
2017-08-01T16:31:30.508Z,52.68
2017-08-01T16:34:03.380Z,53.38
2017-08-01T16:36:34.844Z,53.21
2017-08-01T16:39:07.297Z,52.55
2017-08-01T16:41:38.677Z,52.43
2017-08-01T16:44:10.115Z,52.10
2017-08-01T16:46:44.897Z,51.92
2017-08-01T16:49:16.815Z,51.75
2017-08-01T16:51:48.035Z,51.54
2017-08-01T16:54:19.456Z,51.45
2017-08-01T16:56:50.563Z,51.65
2017-08-01T16:59:21.930Z,51.88
2017-08-01T17:01:52.985Z,51.90
2017-08-01T17:04:24.140Z,52.43
2017-08-01T17:06:56.585Z,52.69
2017-08-01T17:09:36.967Z,52.93
2017-08-01T17:12:10.211Z,52.51
2017-08-01T17:14:41.258Z,53.48
2017-08-01T17:20:11.706Z,54.71
2017-08-01T17:22:43.974Z,55.52
2017-08-01T17:25:15.697Z,56.20
2017-08-01T17:27:46.955Z,56.98
2017-08-01T17:30:18.308Z,57.10
2017-08-01T17:32:49.710Z,58.15
2017-08-01T17:35:20.799Z,58.30
2017-08-01T17:37:51.956Z,58.71
2017-08-01T17:40:24.425Z,58.56
2017-08-01T17:42:55.598Z,58.02
2017-08-01T17:45:27.051Z,57.86
2017-08-01T17:47:58.167Z,57.70
2017-08-01T17:50:29.306Z,57.51
2017-08-01T17:53:01.333Z,57.47
2017-08-01T17:58:28.442Z,57.79
2017-08-01T18:01:03.214Z,57.83
2017-08-01T18:03:48.205Z,57.75
2017-08-01T18:06:25.155Z,58.28
2017-08-01T18:08:58.245Z,58.21
2017-08-01T18:11:30.377Z,57.99
2017-08-01T18:14:05.252Z,57.92
2017-08-01T18:16:37.261Z,58.07
2017-08-01T18:19:08.498Z,57.84
2017-08-01T18:21:40.017Z,58.40
2017-08-01T18:24:13.168Z,58.72
2017-08-01T18:26:44.436Z,58.39
2017-08-01T18:29:16.492Z,57.75
2017-08-01T18:31:47.735Z,57.70
2017-08-01T18:34:20.943Z,57.93
2017-08-01T18:36:53.048Z,58.18
2017-08-01T18:39:25.709Z,58.47
2017-08-01T18:41:57.142Z,58.51
2017-08-01T18:44:28.973Z,59.16
2017-08-01T18:47:02.320Z,61.06
2017-08-01T18:49:34.742Z,61.58
2017-08-01T18:52:13.396Z,62.08
2017-08-01T18:54:46.207Z,62.24
2017-08-01T18:57:20.083Z,62.47
2017-08-01T18:59:53.074Z,61.94
2017-08-01T19:02:26.483Z,61.47
2017-08-01T19:04:59.264Z,57.57
2017-08-01T19:07:32.281Z,53.98
2017-08-01T19:10:20.146Z,53.44
2017-08-01T19:12:53.505Z,52.32
2017-08-01T19:15:27.144Z,51.19
2017-08-01T19:17:59.308Z,50.92
2017-08-01T19:20:32.955Z,51.32
2017-08-01T19:23:08.692Z,52.13
2017-08-01T19:25:41.170Z,54.89
2017-08-01T19:28:14.748Z,55.29
2017-08-01T19:30:48.092Z,55.22
2017-08-01T19:33:21.741Z,55.24
2017-08-01T19:35:55.161Z,56.97
2017-08-01T19:38:29.820Z,59.71
2017-08-01T19:41:05.268Z,61.25
2017-08-01T19:43:40.512Z,61.92
2017-08-01T19:46:14.319Z,62.86
2017-08-01T19:48:47.091Z,64.31
2017-08-01T19:51:18.806Z,64.96
2017-08-01T19:53:50.947Z,65.51
2017-08-01T19:56:25.545Z,60.07
2017-08-01T19:58:58.675Z,59.02
2017-08-01T20:01:33.182Z,59.24
2017-08-01T20:04:07.859Z,58.41
2017-08-01T20:06:39.048Z,57.24
2017-08-01T20:09:13.560Z,56.07
2017-08-01T20:11:47.704Z,56.11
2017-08-01T20:14:23.384Z,56.15
2017-08-01T20:16:56.609Z,56.28
2017-08-01T20:19:31.642Z,56.98
2017-08-01T20:22:10.103Z,55.98
2017-08-01T20:24:42.225Z,56.10
2017-08-01T20:27:14.806Z,56.29
2017-08-01T20:29:49.074Z,56.56
2017-08-01T20:32:21.173Z,57.40
2017-08-01T20:34:54.683Z,58.38
2017-08-01T20:37:26.914Z,59.96
2017-08-01T20:40:00.057Z,61.57
2017-08-01T20:42:31.986Z,60.99
2017-08-01T20:45:07.417Z,61.36
2017-08-01T20:47:41.046Z,61.47
2017-08-01T20:50:13.748Z,61.45
2017-08-01T20:52:48.109Z,61.41
2017-08-01T20:58:14.606Z,62.11
2017-08-01T21:00:45.752Z,63.04
2017-08-01T21:03:18.498Z,63.57
2017-08-01T21:05:53.816Z,64.70
2017-08-01T21:08:28.086Z,65.55
2017-08-01T21:11:02.194Z,66.29
2017-08-01T21:13:41.784Z,67.71
2017-08-01T21:16:22.646Z,68.30
2017-08-01T21:18:59.054Z,68.53
2017-08-01T21:21:33.789Z,68.71
2017-08-01T21:26:45.162Z,69.46
2017-08-01T21:29:18.871Z,69.62
2017-08-01T21:34:47.761Z,70.00
2017-08-01T21:37:20.406Z,70.27
2017-08-01T21:39:53.402Z,70.40
2017-08-01T21:42:24.536Z,70.63
2017-08-01T21:44:56.358Z,71.21
2017-08-01T21:47:28.104Z,70.94
2017-08-01T21:49:59.834Z,70.83
2017-08-01T21:52:32.414Z,70.87
2017-08-01T21:55:03.880Z,70.87
2017-08-01T21:57:35.372Z,70.89
2017-08-01T22:00:06.535Z,71.07
2017-08-01T22:02:37.787Z,70.88
2017-08-01T22:05:09.200Z,70.86
2017-08-01T22:07:40.338Z,71.21
2017-08-01T22:10:11.410Z,71.45
2017-08-01T22:12:42.783Z,71.49
2017-08-01T22:15:13.863Z,71.97
2017-08-01T22:17:44.929Z,72.15
2017-08-01T22:20:20.287Z,72.76
2017-08-01T22:25:36.093Z,72.83
2017-08-01T22:28:13.256Z,72.56
2017-08-01T22:30:45.547Z,72.57
2017-08-01T22:33:16.933Z,72.67
2017-08-01T22:35:50.852Z,72.50
2017-08-01T22:38:22.700Z,72.30
2017-08-01T22:40:56.549Z,72.04
2017-08-01T22:43:30.516Z,71.87
2017-08-01T22:46:03.838Z,71.98
2017-08-01T22:48:36.559Z,71.73
2017-08-01T22:51:07.779Z,71.60
2017-08-01T22:53:41.359Z,71.53
2017-08-01T22:56:14.695Z,71.87
2017-08-01T22:58:48.812Z,72.35
2017-08-01T23:01:20.053Z,73.16
2017-08-01T23:03:51.401Z,73.60
2017-08-01T23:06:25.843Z,74.39
2017-08-01T23:08:58.908Z,74.02
2017-08-01T23:11:30.517Z,74.15
2017-08-01T23:14:08.630Z,74.04
2017-08-01T23:16:41.572Z,73.88
2017-08-01T23:19:16.882Z,74.25
2017-08-01T23:21:50.644Z,74.12
2017-08-01T23:24:22.897Z,74.07
2017-08-01T23:26:58.751Z,74.19
2017-08-01T23:29:47.918Z,73.91
2017-08-01T23:32:20.939Z,73.71
2017-08-01T23:34:52.032Z,73.75
2017-08-01T23:37:23.603Z,73.84
2017-08-01T23:39:59.016Z,73.71
2017-08-01T23:42:39.748Z,74.01
2017-08-01T23:45:19.559Z,73.81
2017-08-01T23:47:55.324Z,73.93
2017-08-01T23:50:31.453Z,74.41
2017-08-01T23:55:39.842Z,74.99
2017-08-01T23:58:11.415Z,75.71
